sensor_id;sensor_type;location;lat;lon;timestamp;pressure;altitude;pressure_sealevel;temperature;humidity
59106;BME280;44891;50.204;8.132;2023-01-15T00:01:00;96652.56;;;9.21;100.00
59106;BME280;44891;50.204;8.132;2023-01-15T00:05:02;96644.25;;;8.98;100.00
59106;BME280;44891;50.204;8.132;2023-01-15T00:09:04;96657.38;;;8.78;100.00
59106;BME280;44891;50.204;8.132;2023-01-15T00:13:06;96658.69;;;8.70;100.00
59106;BME280;44891;50.204;8.132;2023-01-15T00:17:09;96624.97;;;8.43;100.00
59106;BME280;44891;50.204;8.132;2023-01-15T00:21:11;96642.22;;;8.55;100.00
59106;BME280;44891;50.204;8.132;2023-01-15T00:25:13;96651.91;;;8.44;100.00
59106;BME280;44891;50.204;8.132;2023-01-15T00:29:33;96650.84;;;8.45;100.00
59106;BME280;44891;50.204;8.132;2023-01-15T00:33:36;96648.00;;;8.41;100.00
59106;BME280;44891;50.204;8.132;2023-01-15T00:37:38;96656.63;;;8.37;100.00
59106;BME280;44891;50.204;8.132;2023-01-15T00:41:39;96656.34;;;8.33;100.00
59106;BME280;44891;50.204;8.132;2023-01-15T00:45:41;96660.50;;;8.29;100.00
59106;BME280;44891;50.204;8.132;2023-01-15T00:49:45;96662.34;;;8.24;100.00
59106;BME280;44891;50.204;8.132;2023-01-15T00:53:49;96658.41;;;8.31;100.00
59106;BME280;44891;50.204;8.132;2023-01-15T00:57:50;96657.13;;;8.29;100.00
59106;BME280;44891;50.204;8.132;2023-01-15T01:01:52;96658.94;;;8.28;100.00
59106;BME280;44891;50.204;8.132;2023-01-15T01:05:59;96663.66;;;8.26;100.00
59106;BME280;44891;50.204;8.132;2023-01-15T01:10:01;96661.84;;;8.27;100.00
59106;BME280;44891;50.204;8.132;2023-01-15T01:14:03;96674.91;;;8.22;100.00
59106;BME280;44891;50.204;8.132;2023-01-15T01:18:05;96684.28;;;8.17;100.00
59106;BME280;44891;50.204;8.132;2023-01-15T01:22:08;96675.69;;;8.22;100.00
59106;BME280;44891;50.204;8.132;2023-01-15T01:26:10;96674.91;;;8.22;100.00
59106;BME280;44891;50.204;8.132;2023-01-15T01:30:13;96690.06;;;8.14;100.00
59106;BME280;44891;50.204;8.132;2023-01-15T01:34:15;96708.88;;;8.06;100.00
59106;BME280;44891;50.204;8.132;2023-01-15T01:38:19;96721.88;;;7.91;100.00
59106;BME280;44891;50.204;8.132;2023-01-15T01:42:21;96727.09;;;7.81;100.00
59106;BME280;44891;50.204;8.132;2023-01-15T01:46:23;96736.66;;;7.55;100.00
59106;BME280;44891;50.204;8.132;2023-01-15T01:50:25;96748.66;;;7.51;100.00
59106;BME280;44891;50.204;8.132;2023-01-15T01:54:33;96747.59;;;7.47;100.00
59106;BME280;44891;50.204;8.132;2023-01-15T01:58:36;96756.97;;;7.43;100.00
59106;BME280;44891;50.204;8.132;2023-01-15T02:02:38;96754.81;;;7.29;100.00
59106;BME280;44891;50.204;8.132;2023-01-15T02:06:40;96758.41;;;7.23;100.00
59106;BME280;44891;50.204;8.132;2023-01-15T02:10:45;96748.28;;;7.27;100.00
59106;BME280;44891;50.204;8.132;2023-01-15T02:14:50;96750.03;;;7.16;100.00
59106;BME280;44891;50.204;8.132;2023-01-15T02:18:55;96756.97;;;7.00;100.00
59106;BME280;44891;50.204;8.132;2023-01-15T02:23:03;96746.03;;;7.03;100.00
59106;BME280;44891;50.204;8.132;2023-01-15T02:27:14;96743.88;;;6.95;100.00
59106;BME280;44891;50.204;8.132;2023-01-15T02:31:19;96752.50;;;6.96;100.00
59106;BME280;44891;50.204;8.132;2023-01-15T02:35:27;96741.97;;;6.86;100.00
59106;BME280;44891;50.204;8.132;2023-01-15T02:39:31;96745.34;;;6.81;100.00
59106;BME280;44891;50.204;8.132;2023-01-15T02:43:34;96746.78;;;6.67;100.00
59106;BME280;44891;50.204;8.132;2023-01-15T02:47:39;96759.56;;;6.36;100.00
59106;BME280;44891;50.204;8.132;2023-01-15T02:51:43;96777.44;;;6.22;100.00
59106;BME280;44891;50.204;8.132;2023-01-15T02:55:48;96775.47;;;6.13;100.00
59106;BME280;44891;50.204;8.132;2023-01-15T02:59:56;96775.47;;;6.13;100.00
59106;BME280;44891;50.204;8.132;2023-01-15T03:04:02;96775.88;;;5.99;100.00
59106;BME280;44891;50.204;8.132;2023-01-15T03:08:09;96786.59;;;5.81;100.00
59106;BME280;44891;50.204;8.132;2023-01-15T03:12:14;96770.72;;;5.83;100.00
59106;BME280;44891;50.204;8.132;2023-01-15T03:16:21;96764.09;;;5.75;100.00
59106;BME280;44891;50.204;8.132;2023-01-15T03:20:36;96776.09;;;5.76;100.00
59106;BME280;44891;50.204;8.132;2023-01-15T03:24:42;96769.34;;;5.80;100.00
59106;BME280;44891;50.204;8.132;2023-01-15T03:28:45;96773.91;;;5.68;100.00
59106;BME280;44891;50.204;8.132;2023-01-15T03:32:50;96794.03;;;5.34;100.00
59106;BME280;44891;50.204;8.132;2023-01-15T03:36:53;96795.47;;;5.25;100.00
59106;BME280;44891;50.204;8.132;2023-01-15T03:40:58;96797.53;;;5.06;100.00
59106;BME280;44891;50.204;8.132;2023-01-15T03:45:02;96812.66;;;5.09;100.00
59106;BME280;44891;50.204;8.132;2023-01-15T03:49:11;96791.44;;;5.17;100.00
59106;BME280;44891;50.204;8.132;2023-01-15T03:53:19;96816.78;;;5.22;100.00
59106;BME280;44891;50.204;8.132;2023-01-15T03:57:29;96826.16;;;5.23;100.00
59106;BME280;44891;50.204;8.132;2023-01-15T04:01:36;96819.81;;;5.18;100.00
59106;BME280;44891;50.204;8.132;2023-01-15T04:05:40;96829.38;;;5.30;100.00
59106;BME280;44891;50.204;8.132;2023-01-15T04:09:42;96824.41;;;5.28;100.00
59106;BME280;44891;50.204;8.132;2023-01-15T04:13:46;96831.28;;;5.17;100.00
59106;BME280;44891;50.204;8.132;2023-01-15T04:18:01;96853.13;;;5.16;100.00
59106;BME280;44891;50.204;8.132;2023-01-15T04:22:06;96841.44;;;5.02;100.00
59106;BME280;44891;50.204;8.132;2023-01-15T04:26:08;96849.31;;;5.07;100.00
59106;BME280;44891;50.204;8.132;2023-01-15T04:30:10;96860.66;;;5.01;100.00
59106;BME280;44891;50.204;8.132;2023-01-15T04:34:12;96852.69;;;4.91;97.60
59106;BME280;44891;50.204;8.132;2023-01-15T04:38:15;96846.13;;;4.72;98.52
59106;BME280;44891;50.204;8.132;2023-01-15T04:42:17;96850.28;;;4.56;100.00
59106;BME280;44891;50.204;8.132;2023-01-15T04:46:37;96842.19;;;4.41;100.00
59106;BME280;44891;50.204;8.132;2023-01-15T04:50:39;96856.63;;;4.48;100.00
59106;BME280;44891;50.204;8.132;2023-01-15T04:54:42;96849.81;;;4.59;99.91
59106;BME280;44891;50.204;8.132;2023-01-15T04:58:44;96843.13;;;4.63;98.16
59106;BME280;44891;50.204;8.132;2023-01-15T05:02:46;96835.00;;;4.59;98.46
59106;BME280;44891;50.204;8.132;2023-01-15T05:06:48;96839.22;;;4.49;99.60
59106;BME280;44891;50.204;8.132;2023-01-15T05:10:51;96846.41;;;4.58;100.00
59106;BME280;44891;50.204;8.132;2023-01-15T05:14:53;96849.19;;;4.69;100.00
59106;BME280;44891;50.204;8.132;2023-01-15T05:18:56;96848.00;;;4.59;100.00
59106;BME280;44891;50.204;8.132;2023-01-15T05:22:58;96858.16;;;4.61;100.00
59106;BME280;44891;50.204;8.132;2023-01-15T05:27:01;96861.78;;;4.60;100.00
59106;BME280;44891;50.204;8.132;2023-01-15T05:31:05;96867.75;;;4.60;100.00
59106;BME280;44891;50.204;8.132;2023-01-15T05:35:08;96880.53;;;4.62;100.00
59106;BME280;44891;50.204;8.132;2023-01-15T05:39:10;96878.06;;;4.55;100.00
59106;BME280;44891;50.204;8.132;2023-01-15T05:43:13;96887.38;;;4.51;99.11
59106;BME280;44891;50.204;8.132;2023-01-15T05:47:15;96884.09;;;4.56;99.69
59106;BME280;44891;50.204;8.132;2023-01-15T05:51:17;96867.47;;;4.57;97.75
59106;BME280;44891;50.204;8.132;2023-01-15T05:55:19;96885.31;;;4.53;99.69
59106;BME280;44891;50.204;8.132;2023-01-15T05:59:22;96877.50;;;4.53;99.12
59106;BME280;44891;50.204;8.132;2023-01-15T06:03:25;96881.13;;;4.52;99.89
59106;BME280;44891;50.204;8.132;2023-01-15T06:07:27;96882.69;;;4.36;98.03
59106;BME280;44891;50.204;8.132;2023-01-15T06:11:28;96880.06;;;4.36;97.37
59106;BME280;44891;50.204;8.132;2023-01-15T06:15:31;96880.34;;;4.52;97.50
59106;BME280;44891;50.204;8.132;2023-01-15T06:19:33;96877.00;;;4.40;98.07
59106;BME280;44891;50.204;8.132;2023-01-15T06:23:35;96880.81;;;4.49;99.21
59106;BME280;44891;50.204;8.132;2023-01-15T06:27:37;96884.28;;;4.54;97.00
59106;BME280;44891;50.204;8.132;2023-01-15T06:31:40;96889.44;;;4.66;96.86
59106;BME280;44891;50.204;8.132;2023-01-15T06:35:42;96889.28;;;4.56;96.13
59106;BME280;44891;50.204;8.132;2023-01-15T06:39:44;96891.03;;;4.39;96.69
59106;BME280;44891;50.204;8.132;2023-01-15T06:43:46;96897.56;;;4.41;98.07
59106;BME280;44891;50.204;8.132;2023-01-15T06:48:06;96900.41;;;4.40;99.51
59106;BME280;44891;50.204;8.132;2023-01-15T06:52:08;96884.00;;;4.39;98.71
59106;BME280;44891;50.204;8.132;2023-01-15T06:56:10;96883.88;;;4.46;98.12
59106;BME280;44891;50.204;8.132;2023-01-15T07:00:14;96887.16;;;4.41;98.50
59106;BME280;44891;50.204;8.132;2023-01-15T07:04:17;96901.53;;;4.32;98.67
59106;BME280;44891;50.204;8.132;2023-01-15T07:08:19;96905.72;;;4.33;100.00
59106;BME280;44891;50.204;8.132;2023-01-15T07:12:21;96902.88;;;4.34;100.00
59106;BME280;44891;50.204;8.132;2023-01-15T07:16:23;96911.84;;;4.27;100.00
59106;BME280;44891;50.204;8.132;2023-01-15T07:20:29;96914.53;;;4.32;100.00
59106;BME280;44891;50.204;8.132;2023-01-15T07:24:31;96908.00;;;4.29;100.00
59106;BME280;44891;50.204;8.132;2023-01-15T07:28:33;96913.09;;;4.24;100.00
59106;BME280;44891;50.204;8.132;2023-01-15T07:32:35;96911.19;;;4.20;100.00
59106;BME280;44891;50.204;8.132;2023-01-15T07:36:41;96928.69;;;4.24;100.00
59106;BME280;44891;50.204;8.132;2023-01-15T07:40:43;96923.84;;;4.16;100.00
59106;BME280;44891;50.204;8.132;2023-01-15T07:45:05;96935.69;;;4.24;100.00
59106;BME280;44891;50.204;8.132;2023-01-15T07:49:25;96938.84;;;4.26;100.00
59106;BME280;44891;50.204;8.132;2023-01-15T07:53:45;96948.34;;;4.20;100.00
59106;BME280;44891;50.204;8.132;2023-01-15T07:57:47;96948.56;;;4.19;100.00
59106;BME280;44891;50.204;8.132;2023-01-15T08:01:49;96955.94;;;4.10;100.00
59106;BME280;44891;50.204;8.132;2023-01-15T08:05:51;96955.03;;;4.16;100.00
59106;BME280;44891;50.204;8.132;2023-01-15T08:09:54;96954.66;;;4.24;99.36
59106;BME280;44891;50.204;8.132;2023-01-15T08:13:55;96960.41;;;4.26;99.74
59106;BME280;44891;50.204;8.132;2023-01-15T08:18:15;96973.97;;;4.28;99.10
59106;BME280;44891;50.204;8.132;2023-01-15T08:22:16;96970.69;;;4.21;100.00
59106;BME280;44891;50.204;8.132;2023-01-15T08:26:20;96986.75;;;4.18;99.80
59106;BME280;44891;50.204;8.132;2023-01-15T08:30:22;96989.91;;;4.20;100.00
59106;BME280;44891;50.204;8.132;2023-01-15T08:34:25;96989.13;;;4.08;100.00
59106;BME280;44891;50.204;8.132;2023-01-15T08:38:26;96995.09;;;4.20;100.00
59106;BME280;44891;50.204;8.132;2023-01-15T08:42:30;97010.56;;;4.27;100.00
59106;BME280;44891;50.204;8.132;2023-01-15T08:46:31;97014.44;;;4.24;100.00
59106;BME280;44891;50.204;8.132;2023-01-15T08:50:33;97020.41;;;4.25;100.00
59106;BME280;44891;50.204;8.132;2023-01-15T08:54:35;97013.75;;;4.17;100.00
59106;BME280;44891;50.204;8.132;2023-01-15T08:58:38;97023.81;;;4.25;100.00
59106;BME280;44891;50.204;8.132;2023-01-15T09:02:40;97019.16;;;4.27;100.00
59106;BME280;44891;50.204;8.132;2023-01-15T09:06:43;97032.16;;;4.16;100.00
59106;BME280;44891;50.204;8.132;2023-01-15T09:10:45;97053.75;;;4.16;98.29
59106;BME280;44891;50.204;8.132;2023-01-15T09:14:48;97036.22;;;4.12;97.67
59106;BME280;44891;50.204;8.132;2023-01-15T09:18:50;97015.44;;;4.00;98.19
59106;BME280;44891;50.204;8.132;2023-01-15T09:22:51;97032.28;;;3.97;100.00
59106;BME280;44891;50.204;8.132;2023-01-15T09:26:53;97035.66;;;3.98;98.77
59106;BME280;44891;50.204;8.132;2023-01-15T09:30:56;97029.56;;;4.04;99.64
59106;BME280;44891;50.204;8.132;2023-01-15T09:34:58;97027.53;;;4.06;99.24
59106;BME280;44891;50.204;8.132;2023-01-15T09:39:01;97022.34;;;4.06;98.54
59106;BME280;44891;50.204;8.132;2023-01-15T09:43:04;97023.91;;;4.07;98.66
59106;BME280;44891;50.204;8.132;2023-01-15T09:47:10;97029.91;;;4.07;97.25
59106;BME280;44891;50.204;8.132;2023-01-15T09:51:15;97033.66;;;4.23;97.91
59106;BME280;44891;50.204;8.132;2023-01-15T09:55:19;97052.16;;;4.39;96.84
59106;BME280;44891;50.204;8.132;2023-01-15T09:59:25;97044.13;;;4.28;91.40
59106;BME280;44891;50.204;8.132;2023-01-15T10:03:32;97046.50;;;4.42;90.85
59106;BME280;44891;50.204;8.132;2023-01-15T10:07:38;97036.69;;;4.44;93.05
59106;BME280;44891;50.204;8.132;2023-01-15T10:11:43;97059.84;;;4.45;93.00
59106;BME280;44891;50.204;8.132;2023-01-15T10:16:04;97049.44;;;4.45;91.60
59106;BME280;44891;50.204;8.132;2023-01-15T10:24:16;97044.00;;;4.35;90.75
59106;BME280;44891;50.204;8.132;2023-01-15T10:28:19;97053.31;;;4.43;89.28
59106;BME280;44891;50.204;8.132;2023-01-15T10:32:27;97064.56;;;4.48;90.34
59106;BME280;44891;50.204;8.132;2023-01-15T10:36:31;97068.88;;;4.54;90.43
59106;BME280;44891;50.204;8.132;2023-01-15T10:40:41;97082.75;;;4.48;90.29
59106;BME280;44891;50.204;8.132;2023-01-15T10:44:47;97094.44;;;4.57;90.42
59106;BME280;44891;50.204;8.132;2023-01-15T10:48:52;97091.94;;;4.62;89.44
59106;BME280;44891;50.204;8.132;2023-01-15T10:52:59;97092.16;;;4.61;90.67
59106;BME280;44891;50.204;8.132;2023-01-15T10:57:05;97098.47;;;4.53;91.62
59106;BME280;44891;50.204;8.132;2023-01-15T11:01:11;97094.44;;;4.69;90.86
59106;BME280;44891;50.204;8.132;2023-01-15T11:05:16;97090.44;;;4.90;89.11
59106;BME280;44891;50.204;8.132;2023-01-15T11:09:19;97105.41;;;5.23;88.92
59106;BME280;44891;50.204;8.132;2023-01-15T11:13:24;97116.25;;;5.20;88.00
59106;BME280;44891;50.204;8.132;2023-01-15T11:17:43;97127.50;;;5.09;91.59
59106;BME280;44891;50.204;8.132;2023-01-15T11:22:07;97114.69;;;5.19;87.56
59106;BME280;44891;50.204;8.132;2023-01-15T11:26:15;97125.88;;;5.19;85.37
59106;BME280;44891;50.204;8.132;2023-01-15T11:30:27;97124.78;;;5.15;85.99
59106;BME280;44891;50.204;8.132;2023-01-15T11:34:29;97126.94;;;4.95;84.24
59106;BME280;44891;50.204;8.132;2023-01-15T11:38:41;97119.25;;;4.88;83.52
59106;BME280;44891;50.204;8.132;2023-01-15T11:42:44;97120.00;;;5.24;83.73
59106;BME280;44891;50.204;8.132;2023-01-15T11:47:09;97104.88;;;5.50;78.96
59106;BME280;44891;50.204;8.132;2023-01-15T11:51:29;97082.06;;;6.52;77.78
59106;BME280;44891;50.204;8.132;2023-01-15T11:55:31;97081.75;;;7.58;68.75
59106;BME280;44891;50.204;8.132;2023-01-15T11:59:33;97087.63;;;9.19;64.00
59106;BME280;44891;50.204;8.132;2023-01-15T12:03:38;97084.09;;;9.87;60.40
59106;BME280;44891;50.204;8.132;2023-01-15T12:07:41;97060.50;;;11.28;57.68
59106;BME280;44891;50.204;8.132;2023-01-15T12:11:46;97059.63;;;10.83;57.93
59106;BME280;44891;50.204;8.132;2023-01-15T12:15:52;97067.84;;;11.75;53.67
59106;BME280;44891;50.204;8.132;2023-01-15T12:20:01;97056.63;;;12.33;51.21
59106;BME280;44891;50.204;8.132;2023-01-15T12:24:09;97071.28;;;11.76;53.05
59106;BME280;44891;50.204;8.132;2023-01-15T12:28:16;97066.00;;;8.44;62.59
59106;BME280;44891;50.204;8.132;2023-01-15T12:32:21;97055.78;;;9.78;59.46
59106;BME280;44891;50.204;8.132;2023-01-15T12:36:28;97059.88;;;10.92;56.57
59106;BME280;44891;50.204;8.132;2023-01-15T12:40:35;97067.56;;;11.37;54.32
59106;BME280;44891;50.204;8.132;2023-01-15T12:44:42;97052.78;;;9.24;59.79
59106;BME280;44891;50.204;8.132;2023-01-15T12:49:04;97076.03;;;7.34;66.11
59106;BME280;44891;50.204;8.132;2023-01-15T12:53:13;97066.56;;;6.63;70.19
59106;BME280;44891;50.204;8.132;2023-01-15T12:57:19;97053.78;;;6.44;70.93
59106;BME280;44891;50.204;8.132;2023-01-15T13:01:25;97058.03;;;6.50;71.73
59106;BME280;44891;50.204;8.132;2023-01-15T13:05:29;97064.88;;;6.18;72.52
59106;BME280;44891;50.204;8.132;2023-01-15T13:09:36;97062.41;;;6.11;74.00
59106;BME280;44891;50.204;8.132;2023-01-15T13:13:40;97061.75;;;6.38;70.87
59106;BME280;44891;50.204;8.132;2023-01-15T13:17:48;97068.19;;;6.30;71.20
59106;BME280;44891;50.204;8.132;2023-01-15T13:21:53;97070.72;;;6.08;72.56
59106;BME280;44891;50.204;8.132;2023-01-15T13:26:00;97088.66;;;5.76;73.93
59106;BME280;44891;50.204;8.132;2023-01-15T13:30:13;97084.59;;;5.97;73.46
59106;BME280;44891;50.204;8.132;2023-01-15T13:34:19;97072.91;;;5.99;72.82
59106;BME280;44891;50.204;8.132;2023-01-15T13:38:25;97073.31;;;5.91;71.08
59106;BME280;44891;50.204;8.132;2023-01-15T13:42:29;97071.66;;;6.02;69.17
59106;BME280;44891;50.204;8.132;2023-01-15T13:46:34;97065.50;;;6.42;69.27
59106;BME280;44891;50.204;8.132;2023-01-15T13:50:38;97072.06;;;6.66;68.14
59106;BME280;44891;50.204;8.132;2023-01-15T13:54:41;97091.84;;;6.62;66.83
59106;BME280;44891;50.204;8.132;2023-01-15T13:58:52;97082.38;;;6.56;66.38
59106;BME280;44891;50.204;8.132;2023-01-15T14:02:54;97098.50;;;6.53;65.63
59106;BME280;44891;50.204;8.132;2023-01-15T14:06:56;97115.66;;;6.32;65.31
59106;BME280;44891;50.204;8.132;2023-01-15T14:10:58;97119.38;;;6.36;65.19
59106;BME280;44891;50.204;8.132;2023-01-15T14:15:14;97122.28;;;6.57;65.33
59106;BME280;44891;50.204;8.132;2023-01-15T14:19:27;97127.59;;;6.28;65.24
59106;BME280;44891;50.204;8.132;2023-01-15T14:23:38;97118.09;;;6.39;64.88
59106;BME280;44891;50.204;8.132;2023-01-15T14:27:56;97124.25;;;6.33;66.05
59106;BME280;44891;50.204;8.132;2023-01-15T14:32:04;97124.84;;;6.35;65.77
59106;BME280;44891;50.204;8.132;2023-01-15T14:36:08;97114.63;;;6.16;65.20
59106;BME280;44891;50.204;8.132;2023-01-15T14:40:16;97113.50;;;6.12;66.39
59106;BME280;44891;50.204;8.132;2023-01-15T14:44:18;97106.88;;;6.05;67.29
59106;BME280;44891;50.204;8.132;2023-01-15T14:48:37;97108.69;;;6.04;67.58
59106;BME280;44891;50.204;8.132;2023-01-15T14:52:39;97118.72;;;5.95;67.48
59106;BME280;44891;50.204;8.132;2023-01-15T14:56:48;97122.53;;;5.76;68.46
59106;BME280;44891;50.204;8.132;2023-01-15T15:00:51;97114.56;;;5.83;69.26
59106;BME280;44891;50.204;8.132;2023-01-15T15:04:55;97122.63;;;5.81;68.86
59106;BME280;44891;50.204;8.132;2023-01-15T15:08:59;97132.38;;;5.74;69.51
59106;BME280;44891;50.204;8.132;2023-01-15T15:13:05;97133.78;;;5.65;70.00
59106;BME280;44891;50.204;8.132;2023-01-15T15:17:13;97145.66;;;5.61;70.69
59106;BME280;44891;50.204;8.132;2023-01-15T15:21:21;97153.53;;;5.49;70.95
59106;BME280;44891;50.204;8.132;2023-01-15T15:25:24;97157.25;;;5.53;71.50
59106;BME280;44891;50.204;8.132;2023-01-15T15:29:27;97161.81;;;5.46;71.63
59106;BME280;44891;50.204;8.132;2023-01-15T15:33:31;97154.34;;;5.50;71.89
59106;BME280;44891;50.204;8.132;2023-01-15T15:37:42;97170.53;;;5.40;73.87
59106;BME280;44891;50.204;8.132;2023-01-15T15:41:44;97172.41;;;5.16;78.51
59106;BME280;44891;50.204;8.132;2023-01-15T15:46:17;97151.00;;;5.14;80.13
59106;BME280;44891;50.204;8.132;2023-01-15T15:50:39;97149.69;;;5.00;80.77
59106;BME280;44891;50.204;8.132;2023-01-15T15:54:42;97161.47;;;4.90;80.55
59106;BME280;44891;50.204;8.132;2023-01-15T15:58:44;97116.44;;;4.67;80.00
59106;BME280;44891;50.204;8.132;2023-01-15T16:02:46;97147.31;;;4.98;79.14
59106;BME280;44891;50.204;8.132;2023-01-15T16:06:48;97150.69;;;4.99;78.97
59106;BME280;44891;50.204;8.132;2023-01-15T16:10:53;97143.47;;;4.89;80.10
59106;BME280;44891;50.204;8.132;2023-01-15T16:14:56;97143.38;;;4.84;78.82
59106;BME280;44891;50.204;8.132;2023-01-15T16:18:58;97144.94;;;4.85;78.27
59106;BME280;44891;50.204;8.132;2023-01-15T16:23:01;97152.63;;;4.91;77.34
59106;BME280;44891;50.204;8.132;2023-01-15T16:27:05;97157.47;;;4.88;77.86
59106;BME280;44891;50.204;8.132;2023-01-15T16:31:09;97141.19;;;4.93;77.60
59106;BME280;44891;50.204;8.132;2023-01-15T16:35:15;97144.94;;;4.97;77.00
59106;BME280;44891;50.204;8.132;2023-01-15T16:39:19;97144.81;;;4.91;77.66
59106;BME280;44891;50.204;8.132;2023-01-15T16:43:24;97143.25;;;4.90;77.46
59106;BME280;44891;50.204;8.132;2023-01-15T16:47:27;97142.91;;;4.87;78.05
59106;BME280;44891;50.204;8.132;2023-01-15T16:51:30;97147.88;;;4.88;77.34
59106;BME280;44891;50.204;8.132;2023-01-15T16:55:37;97152.88;;;4.90;77.40
59106;BME280;44891;50.204;8.132;2023-01-15T16:59:54;97137.69;;;4.87;77.01
59106;BME280;44891;50.204;8.132;2023-01-15T17:03:56;97141.19;;;4.93;76.38
59106;BME280;44891;50.204;8.132;2023-01-15T17:07:59;97154.75;;;4.95;77.34
59106;BME280;44891;50.204;8.132;2023-01-15T17:12:02;97140.88;;;4.89;78.04
59106;BME280;44891;50.204;8.132;2023-01-15T17:16:13;97155.66;;;4.88;77.46
59106;BME280;44891;50.204;8.132;2023-01-15T17:20:16;97150.69;;;4.87;77.90
59106;BME280;44891;50.204;8.132;2023-01-15T17:24:19;97149.47;;;4.89;77.48
59106;BME280;44891;50.204;8.132;2023-01-15T17:28:21;97140.19;;;4.94;77.02
59106;BME280;44891;50.204;8.132;2023-01-15T17:32:27;97136.78;;;4.93;76.97
59106;BME280;44891;50.204;8.132;2023-01-15T17:36:31;97138.84;;;4.91;77.44
59106;BME280;44891;50.204;8.132;2023-01-15T17:40:34;97136.22;;;4.91;76.96
59106;BME280;44891;50.204;8.132;2023-01-15T17:44:35;97135.22;;;4.92;76.61
59106;BME280;44891;50.204;8.132;2023-01-15T17:48:39;97128.97;;;4.93;76.22
59106;BME280;44891;50.204;8.132;2023-01-15T17:52:41;97123.78;;;4.81;76.57
59106;BME280;44891;50.204;8.132;2023-01-15T17:56:43;97129.00;;;4.81;77.03
59106;BME280;44891;50.204;8.132;2023-01-15T18:01:03;97131.59;;;4.93;76.99
59106;BME280;44891;50.204;8.132;2023-01-15T18:05:40;97122.19;;;5.04;76.43
59106;BME280;44891;50.204;8.132;2023-01-15T18:09:42;97112.69;;;5.09;77.98
59106;BME280;44891;50.204;8.132;2023-01-15T18:13:44;97116.88;;;4.99;78.41
59106;BME280;44891;50.204;8.132;2023-01-15T18:17:46;97112.59;;;4.93;78.55
59106;BME280;44891;50.204;8.132;2023-01-15T18:21:49;97107.16;;;4.94;79.31
59106;BME280;44891;50.204;8.132;2023-01-15T18:25:51;97113.97;;;4.83;79.36
59106;BME280;44891;50.204;8.132;2023-01-15T18:29:53;97104.91;;;4.86;79.85
59106;BME280;44891;50.204;8.132;2023-01-15T18:33:54;97114.53;;;4.85;79.93
59106;BME280;44891;50.204;8.132;2023-01-15T18:37:58;97112.28;;;4.89;79.35
59106;BME280;44891;50.204;8.132;2023-01-15T18:41:59;97117.56;;;4.94;79.37
59106;BME280;44891;50.204;8.132;2023-01-15T18:46:19;97114.50;;;4.97;79.44
59106;BME280;44891;50.204;8.132;2023-01-15T18:50:38;97087.00;;;5.01;79.06
59106;BME280;44891;50.204;8.132;2023-01-15T18:54:41;97093.56;;;5.04;78.35
59106;BME280;44891;50.204;8.132;2023-01-15T18:58:43;97099.34;;;4.94;79.67
59106;BME280;44891;50.204;8.132;2023-01-15T19:02:45;97083.59;;;5.01;78.15
59106;BME280;44891;50.204;8.132;2023-01-15T19:06:47;97095.50;;;4.97;79.11
59106;BME280;44891;50.204;8.132;2023-01-15T19:10:50;97086.22;;;5.01;78.47
59106;BME280;44891;50.204;8.132;2023-01-15T19:14:52;97077.84;;;4.99;79.24
59106;BME280;44891;50.204;8.132;2023-01-15T19:19:14;97081.91;;;4.95;78.88
59106;BME280;44891;50.204;8.132;2023-01-15T19:23:16;97074.81;;;4.90;78.82
59106;BME280;44891;50.204;8.132;2023-01-15T19:27:22;97076.53;;;4.84;80.38
59106;BME280;44891;50.204;8.132;2023-01-15T19:31:24;97066.00;;;4.79;78.88
59106;BME280;44891;50.204;8.132;2023-01-15T19:35:38;97059.78;;;4.80;78.88
59106;BME280;44891;50.204;8.132;2023-01-15T19:39:40;97063.75;;;4.83;78.66
59106;BME280;44891;50.204;8.132;2023-01-15T19:43:43;97053.47;;;4.76;78.95
59106;BME280;44891;50.204;8.132;2023-01-15T19:47:59;97068.75;;;4.73;79.03
59106;BME280;44891;50.204;8.132;2023-01-15T19:52:19;97072.13;;;4.61;80.06
59106;BME280;44891;50.204;8.132;2023-01-15T19:56:37;97065.94;;;4.62;79.90
59106;BME280;44891;50.204;8.132;2023-01-15T20:00:41;97056.78;;;4.60;80.10
59106;BME280;44891;50.204;8.132;2023-01-15T20:04:44;97062.09;;;4.53;80.79
59106;BME280;44891;50.204;8.132;2023-01-15T20:08:45;97061.41;;;4.58;79.74
59106;BME280;44891;50.204;8.132;2023-01-15T20:12:47;97055.97;;;4.59;80.27
59106;BME280;44891;50.204;8.132;2023-01-15T20:17:08;97054.41;;;4.58;80.42
59106;BME280;44891;50.204;8.132;2023-01-15T20:21:10;97061.84;;;4.55;80.96
59106;BME280;44891;50.204;8.132;2023-01-15T20:25:14;97049.88;;;4.54;81.21
59106;BME280;44891;50.204;8.132;2023-01-15T20:29:15;97041.28;;;4.53;81.38
59106;BME280;44891;50.204;8.132;2023-01-15T20:33:20;97036.88;;;4.54;82.21
59106;BME280;44891;50.204;8.132;2023-01-15T20:37:22;97030.22;;;4.58;82.06
59106;BME280;44891;50.204;8.132;2023-01-15T20:41:24;97022.66;;;4.56;81.84
59106;BME280;44891;50.204;8.132;2023-01-15T20:45:43;97020.72;;;4.52;82.99
59106;BME280;44891;50.204;8.132;2023-01-15T20:49:46;97011.78;;;4.48;82.94
59106;BME280;44891;50.204;8.132;2023-01-15T20:53:48;97009.41;;;4.58;83.35
59106;BME280;44891;50.204;8.132;2023-01-15T20:57:52;96985.69;;;4.54;82.85
59106;BME280;44891;50.204;8.132;2023-01-15T21:01:54;96976.91;;;4.44;83.68
59106;BME280;44891;50.204;8.132;2023-01-15T21:05:57;96973.72;;;4.42;84.13
59106;BME280;44891;50.204;8.132;2023-01-15T21:09:59;96967.66;;;4.36;84.85
59106;BME280;44891;50.204;8.132;2023-01-15T21:14:01;96970.47;;;4.34;85.10
59106;BME280;44891;50.204;8.132;2023-01-15T21:18:03;96980.19;;;4.39;85.35
59106;BME280;44891;50.204;8.132;2023-01-15T21:22:06;96964.22;;;4.35;85.67
59106;BME280;44891;50.204;8.132;2023-01-15T21:26:08;96955.22;;;4.38;86.15
59106;BME280;44891;50.204;8.132;2023-01-15T21:30:10;96940.50;;;4.44;86.06
59106;BME280;44891;50.204;8.132;2023-01-15T21:34:12;96946.16;;;4.41;86.36
59106;BME280;44891;50.204;8.132;2023-01-15T21:38:15;96940.16;;;4.40;86.20
59106;BME280;44891;50.204;8.132;2023-01-15T21:42:18;96936.00;;;4.39;87.29
59106;BME280;44891;50.204;8.132;2023-01-15T21:46:38;96921.06;;;4.34;86.89
59106;BME280;44891;50.204;8.132;2023-01-15T21:50:40;96927.53;;;4.32;86.70
59106;BME280;44891;50.204;8.132;2023-01-15T21:54:43;96914.00;;;4.18;87.48